sensor_id;sensor_type;location;lat;lon;timestamp;pressure;altitude;pressure_sealevel;temperature;humidity
11339;BME280;5724;42.684;23.252;2023-07-29T00:01:59;94241.16;;;18.90;60.45
11339;BME280;5724;42.684;23.252;2023-07-29T00:04:25;94230.69;;;18.74;60.63
11339;BME280;5724;42.684;23.252;2023-07-29T00:06:50;94244.34;;;18.88;61.72
11339;BME280;5724;42.684;23.252;2023-07-29T00:09:16;94248.78;;;18.82;62.46
11339;BME280;5724;42.684;23.252;2023-07-29T00:11:41;94247.88;;;18.93;62.13
11339;BME280;5724;42.684;23.252;2023-07-29T00:14:07;94254.84;;;18.70;62.33
11339;BME280;5724;42.684;23.252;2023-07-29T00:16:32;94242.72;;;18.57;61.99
11339;BME280;5724;42.684;23.252;2023-07-29T00:18:58;94238.31;;;18.59;61.80
11339;BME280;5724;42.684;23.252;2023-07-29T00:21:23;94241.41;;;18.69;61.69
11339;BME280;5724;42.684;23.252;2023-07-29T00:23:48;94239.34;;;18.76;61.36
11339;BME280;5724;42.684;23.252;2023-07-29T00:26:14;94226.72;;;18.75;61.08
11339;BME280;5724;42.684;23.252;2023-07-29T00:28:39;94236.13;;;18.81;60.66
11339;BME280;5724;42.684;23.252;2023-07-29T00:31:05;94235.72;;;18.83;60.86
11339;BME280;5724;42.684;23.252;2023-07-29T00:33:31;94233.69;;;18.87;60.95
11339;BME280;5724;42.684;23.252;2023-07-29T00:35:56;94234.94;;;18.82;60.74
11339;BME280;5724;42.684;23.252;2023-07-29T00:38:22;94230.97;;;18.83;61.14
11339;BME280;5724;42.684;23.252;2023-07-29T00:40:47;94226.66;;;18.79;60.97
11339;BME280;5724;42.684;23.252;2023-07-29T00:43:13;94230.00;;;18.63;61.76
11339;BME280;5724;42.684;23.252;2023-07-29T00:45:38;94218.00;;;18.77;61.46
11339;BME280;5724;42.684;23.252;2023-07-29T00:48:04;94225.56;;;18.73;62.40
11339;BME280;5724;42.684;23.252;2023-07-29T00:50:30;94236.25;;;18.71;62.98
11339;BME280;5724;42.684;23.252;2023-07-29T00:52:57;94234.34;;;18.64;64.00
11339;BME280;5724;42.684;23.252;2023-07-29T00:55:22;94228.53;;;18.51;63.93
11339;BME280;5724;42.684;23.252;2023-07-29T00:57:48;94230.63;;;18.40;64.31
11339;BME280;5724;42.684;23.252;2023-07-29T01:00:16;94222.19;;;18.54;63.50
11339;BME280;5724;42.684;23.252;2023-07-29T01:02:43;94224.66;;;18.45;63.75
11339;BME280;5724;42.684;23.252;2023-07-29T01:05:11;94210.13;;;18.38;63.79
11339;BME280;5724;42.684;23.252;2023-07-29T01:07:55;94224.31;;;18.40;64.05
11339;BME280;5724;42.684;23.252;2023-07-29T01:10:32;94214.53;;;18.31;64.82
11339;BME280;5724;42.684;23.252;2023-07-29T01:13:18;94214.63;;;18.24;64.82
11339;BME280;5724;42.684;23.252;2023-07-29T01:18:30;94224.78;;;18.35;64.96
11339;BME280;5724;42.684;23.252;2023-07-29T01:20:59;94225.53;;;18.39;64.98
11339;BME280;5724;42.684;23.252;2023-07-29T01:23:26;94209.09;;;18.21;65.04
11339;BME280;5724;42.684;23.252;2023-07-29T01:25:54;94222.03;;;18.35;65.23
11339;BME280;5724;42.684;23.252;2023-07-29T01:28:19;94221.72;;;18.25;65.53
11339;BME280;5724;42.684;23.252;2023-07-29T01:30:49;94222.09;;;18.27;65.61
11339;BME280;5724;42.684;23.252;2023-07-29T01:33:22;94208.38;;;18.17;65.66
11339;BME280;5724;42.684;23.252;2023-07-29T01:36:27;94226.09;;;18.19;66.12
11339;BME280;5724;42.684;23.252;2023-07-29T01:38:52;94229.09;;;17.98;66.64
11339;BME280;5724;42.684;23.252;2023-07-29T01:41:20;94219.22;;;17.97;66.26
11339;BME280;5724;42.684;23.252;2023-07-29T01:43:46;94218.41;;;18.00;66.39
11339;BME280;5724;42.684;23.252;2023-07-29T01:46:15;94216.00;;;18.02;66.07
11339;BME280;5724;42.684;23.252;2023-07-29T01:48:41;94226.25;;;18.05;66.04
11339;BME280;5724;42.684;23.252;2023-07-29T01:51:07;94224.28;;;18.06;66.33
11339;BME280;5724;42.684;23.252;2023-07-29T01:53:34;94223.56;;;17.98;66.43
11339;BME280;5724;42.684;23.252;2023-07-29T01:55:59;94217.25;;;17.97;66.57
11339;BME280;5724;42.684;23.252;2023-07-29T01:58:25;94222.00;;;17.93;66.56
11339;BME280;5724;42.684;23.252;2023-07-29T02:00:50;94223.56;;;17.98;66.60
11339;BME280;5724;42.684;23.252;2023-07-29T02:03:16;94225.13;;;17.99;66.76
11339;BME280;5724;42.684;23.252;2023-07-29T02:05:42;94208.72;;;17.78;67.19
11339;BME280;5724;42.684;23.252;2023-07-29T02:08:09;94215.78;;;17.86;67.19
11339;BME280;5724;42.684;23.252;2023-07-29T02:10:35;94220.84;;;17.91;67.01
11339;BME280;5724;42.684;23.252;2023-07-29T02:13:00;94222.41;;;17.95;66.90
11339;BME280;5724;42.684;23.252;2023-07-29T02:15:26;94222.09;;;17.86;67.41
11339;BME280;5724;42.684;23.252;2023-07-29T02:17:51;94222.97;;;17.69;68.28
11339;BME280;5724;42.684;23.252;2023-07-29T02:20:17;94220.19;;;17.76;67.54
11339;BME280;5724;42.684;23.252;2023-07-29T02:22:42;94227.56;;;17.90;67.08
11339;BME280;5724;42.684;23.252;2023-07-29T02:25:08;94221.34;;;17.79;67.34
11339;BME280;5724;42.684;23.252;2023-07-29T02:27:33;94220.81;;;17.42;69.44
11339;BME280;5724;42.684;23.252;2023-07-29T02:29:59;94225.44;;;17.56;69.21
11339;BME280;5724;42.684;23.252;2023-07-29T02:32:24;94218.78;;;17.50;69.24
11339;BME280;5724;42.684;23.252;2023-07-29T02:34:50;94222.41;;;17.40;70.30
11339;BME280;5724;42.684;23.252;2023-07-29T02:37:15;94219.72;;;17.26;70.46
11339;BME280;5724;42.684;23.252;2023-07-29T02:39:41;94216.88;;;17.40;69.96
11339;BME280;5724;42.684;23.252;2023-07-29T02:42:07;94231.88;;;17.39;70.05
11339;BME280;5724;42.684;23.252;2023-07-29T02:44:32;94220.06;;;17.35;70.26
11339;BME280;5724;42.684;23.252;2023-07-29T02:46:57;94222.13;;;17.24;70.78
11339;BME280;5724;42.684;23.252;2023-07-29T02:49:23;94236.66;;;17.31;70.49
11339;BME280;5724;42.684;23.252;2023-07-29T02:51:49;94232.75;;;17.25;70.55
11339;BME280;5724;42.684;23.252;2023-07-29T02:54:14;94227.22;;;17.25;70.48
11339;BME280;5724;42.684;23.252;2023-07-29T02:56:40;94224.84;;;17.31;70.12
11339;BME280;5724;42.684;23.252;2023-07-29T02:59:05;94233.13;;;17.31;70.08
11339;BME280;5724;42.684;23.252;2023-07-29T03:01:31;94231.22;;;17.17;70.21
11339;BME280;5724;42.684;23.252;2023-07-29T03:03:57;94239.06;;;17.29;69.67
11339;BME280;5724;42.684;23.252;2023-07-29T03:06:22;94238.56;;;17.41;69.25
11339;BME280;5724;42.684;23.252;2023-07-29T03:08:48;94243.28;;;17.48;68.94
11339;BME280;5724;42.684;23.252;2023-07-29T03:11:14;94239.31;;;17.49;68.74
11339;BME280;5724;42.684;23.252;2023-07-29T03:13:41;94246.13;;;17.34;69.82
11339;BME280;5724;42.684;23.252;2023-07-29T03:16:08;94244.56;;;17.29;69.99
11339;BME280;5724;42.684;23.252;2023-07-29T03:18:34;94224.56;;;17.07;70.49
11339;BME280;5724;42.684;23.252;2023-07-29T03:21:00;94239.06;;;17.26;70.14
11339;BME280;5724;42.684;23.252;2023-07-29T03:23:25;94234.34;;;17.23;69.85
11339;BME280;5724;42.684;23.252;2023-07-29T03:25:51;94245.00;;;17.24;69.82
11339;BME280;5724;42.684;23.252;2023-07-29T03:28:18;94247.75;;;17.28;69.89
11339;BME280;5724;42.684;23.252;2023-07-29T03:30:43;94248.53;;;17.28;70.10
11339;BME280;5724;42.684;23.252;2023-07-29T03:33:09;94244.56;;;17.29;70.11
11339;BME280;5724;42.684;23.252;2023-07-29T03:35:34;94241.53;;;17.09;70.44
11339;BME280;5724;42.684;23.252;2023-07-29T03:38:00;94246.94;;;17.27;70.05
11339;BME280;5724;42.684;23.252;2023-07-29T03:40:25;94247.06;;;17.06;71.13
11339;BME280;5724;42.684;23.252;2023-07-29T03:42:50;94241.47;;;17.16;71.29
11339;BME280;5724;42.684;23.252;2023-07-29T03:45:16;94245.50;;;17.05;72.07
11339;BME280;5724;42.684;23.252;2023-07-29T03:47:41;94246.28;;;17.05;72.16
11339;BME280;5724;42.684;23.252;2023-07-29T03:50:07;94241.13;;;17.11;71.91
11339;BME280;5724;42.684;23.252;2023-07-29T03:52:33;94247.06;;;17.09;72.23
11339;BME280;5724;42.684;23.252;2023-07-29T03:54:59;94245.81;;;17.17;71.53
11339;BME280;5724;42.684;23.252;2023-07-29T03:57:24;94240.69;;;17.20;71.27
11339;BME280;5724;42.684;23.252;2023-07-29T03:59:49;94244.63;;;17.19;71.93
11339;BME280;5724;42.684;23.252;2023-07-29T04:02:15;94247.75;;;17.28;71.47
11339;BME280;5724;42.684;23.252;2023-07-29T04:04:40;94249.72;;;17.24;71.34
11339;BME280;5724;42.684;23.252;2023-07-29T04:07:08;94248.97;;;17.20;71.47
11339;BME280;5724;42.684;23.252;2023-07-29T04:09:33;94255.25;;;17.24;71.41
11339;BME280;5724;42.684;23.252;2023-07-29T04:11:58;94253.31;;;17.21;71.57
11339;BME280;5724;42.684;23.252;2023-07-29T04:14:24;94256.75;;;17.35;71.41
11339;BME280;5724;42.684;23.252;2023-07-29T04:16:49;94248.00;;;17.44;71.04
11339;BME280;5724;42.684;23.252;2023-07-29T04:19:15;94251.22;;;17.35;71.37
11339;BME280;5724;42.684;23.252;2023-07-29T04:21:40;94253.13;;;17.45;70.42
11339;BME280;5724;42.684;23.252;2023-07-29T04:24:07;94257.00;;;17.55;70.19
11339;BME280;5724;42.684;23.252;2023-07-29T04:26:33;94260.59;;;17.52;70.78
11339;BME280;5724;42.684;23.252;2023-07-29T04:28:58;94266.41;;;17.65;69.92
11339;BME280;5724;42.684;23.252;2023-07-29T04:31:24;94264.84;;;17.64;69.22
11339;BME280;5724;42.684;23.252;2023-07-29T04:33:50;94265.25;;;17.69;69.09
11339;BME280;5724;42.684;23.252;2023-07-29T04:36:15;94260.06;;;17.75;68.46
11339;BME280;5724;42.684;23.252;2023-07-29T04:38:40;94263.97;;;17.81;68.33
11339;BME280;5724;42.684;23.252;2023-07-29T04:41:06;94266.31;;;17.86;68.05
11339;BME280;5724;42.684;23.252;2023-07-29T04:43:34;94263.06;;;17.95;67.93
11339;BME280;5724;42.684;23.252;2023-07-29T04:45:59;94270.88;;;18.03;67.98
11339;BME280;5724;42.684;23.252;2023-07-29T04:48:24;94264.47;;;18.17;67.81
11339;BME280;5724;42.684;23.252;2023-07-29T04:50:50;94267.91;;;18.28;67.73
11339;BME280;5724;42.684;23.252;2023-07-29T04:53:15;94268.88;;;18.49;66.83
11339;BME280;5724;42.684;23.252;2023-07-29T04:55:41;94271.13;;;18.65;65.69
11339;BME280;5724;42.684;23.252;2023-07-29T04:58:08;94277.75;;;18.74;65.00
11339;BME280;5724;42.684;23.252;2023-07-29T05:00:33;94279.72;;;18.74;65.25
11339;BME280;5724;42.684;23.252;2023-07-29T05:02:59;94249.78;;;18.65;64.95
11339;BME280;5724;42.684;23.252;2023-07-29T05:05:24;94285.75;;;18.99;64.75
11339;BME280;5724;42.684;23.252;2023-07-29T05:07:50;94289.56;;;19.12;64.31
11339;BME280;5724;42.684;23.252;2023-07-29T05:10:15;94292.69;;;19.14;64.25
11339;BME280;5724;42.684;23.252;2023-07-29T05:12:40;94294.34;;;19.08;64.21
11339;BME280;5724;42.684;23.252;2023-07-29T05:15:06;94306.13;;;19.16;64.53
11339;BME280;5724;42.684;23.252;2023-07-29T05:17:32;94298.03;;;19.29;64.34
11339;BME280;5724;42.684;23.252;2023-07-29T05:19:57;94301.88;;;19.38;63.87
11339;BME280;5724;42.684;23.252;2023-07-29T05:22:23;94298.53;;;19.20;64.33
11339;BME280;5724;42.684;23.252;2023-07-29T05:24:48;94291.06;;;19.17;64.38
11339;BME280;5724;42.684;23.252;2023-07-29T05:27:14;94293.25;;;19.33;64.28
11339;BME280;5724;42.684;23.252;2023-07-29T05:29:39;94288.41;;;19.40;63.92
11339;BME280;5724;42.684;23.252;2023-07-29T05:32:05;94290.53;;;19.60;63.59
11339;BME280;5724;42.684;23.252;2023-07-29T05:34:30;94293.16;;;19.70;63.57
11339;BME280;5724;42.684;23.252;2023-07-29T05:36:56;94290.13;;;19.61;63.26
11339;BME280;5724;42.684;23.252;2023-07-29T05:39:21;94302.88;;;19.82;63.44
11339;BME280;5724;42.684;23.252;2023-07-29T05:41:46;94289.28;;;19.91;62.71
11339;BME280;5724;42.684;23.252;2023-07-29T05:44:12;94299.84;;;19.73;63.19
11339;BME280;5724;42.684;23.252;2023-07-29T05:46:37;94299.41;;;19.75;63.49
11339;BME280;5724;42.684;23.252;2023-07-29T05:49:03;94303.84;;;19.95;63.03
11339;BME280;5724;42.684;23.252;2023-07-29T05:51:28;94299.78;;;20.04;62.77
11339;BME280;5724;42.684;23.252;2023-07-29T05:53:54;94303.25;;;19.84;63.18
11339;BME280;5724;42.684;23.252;2023-07-29T05:56:19;94296.72;;;19.98;62.66
11339;BME280;5724;42.684;23.252;2023-07-29T05:58:44;94299.00;;;20.26;62.03
11339;BME280;5724;42.684;23.252;2023-07-29T06:01:10;94300.25;;;20.49;61.23
11339;BME280;5724;42.684;23.252;2023-07-29T06:03:36;94306.31;;;20.64;61.41
11339;BME280;5724;42.684;23.252;2023-07-29T06:06:01;94296.53;;;20.79;60.62
11339;BME280;5724;42.684;23.252;2023-07-29T06:08:26;94302.44;;;21.01;60.23
11339;BME280;5724;42.684;23.252;2023-07-29T06:10:53;94299.84;;;21.13;59.38
11339;BME280;5724;42.684;23.252;2023-07-29T06:13:19;94303.47;;;21.30;59.58
11339;BME280;5724;42.684;23.252;2023-07-29T06:15:44;94301.53;;;21.47;58.63
11339;BME280;5724;42.684;23.252;2023-07-29T06:18:10;94300.28;;;21.68;57.97
11339;BME280;5724;42.684;23.252;2023-07-29T06:20:35;94296.59;;;21.55;57.86
11339;BME280;5724;42.684;23.252;2023-07-29T06:23:01;94294.88;;;21.61;56.99
11339;BME280;5724;42.684;23.252;2023-07-29T06:25:27;94289.50;;;21.34;57.30
11339;BME280;5724;42.684;23.252;2023-07-29T06:27:52;94286.94;;;21.23;58.01
11339;BME280;5724;42.684;23.252;2023-07-29T06:30:18;94280.84;;;21.48;57.40
11339;BME280;5724;42.684;23.252;2023-07-29T06:32:43;94288.53;;;21.60;56.85
11339;BME280;5724;42.684;23.252;2023-07-29T06:35:09;94282.00;;;21.51;56.53
11339;BME280;5724;42.684;23.252;2023-07-29T06:37:34;94281.75;;;21.61;56.74
11339;BME280;5724;42.684;23.252;2023-07-29T06:39:59;94277.63;;;21.86;55.91
11339;BME280;5724;42.684;23.252;2023-07-29T06:42:25;94276.72;;;22.09;54.68
11339;BME280;5724;42.684;23.252;2023-07-29T06:44:50;94272.31;;;22.11;53.83
11339;BME280;5724;42.684;23.252;2023-07-29T06:47:16;94267.03;;;21.97;53.79
11339;BME280;5724;42.684;23.252;2023-07-29T06:49:41;94277.09;;;21.75;54.00
11339;BME280;5724;42.684;23.252;2023-07-29T06:52:07;94275.22;;;22.04;53.88
11339;BME280;5724;42.684;23.252;2023-07-29T06:54:32;94266.38;;;22.25;53.32
11339;BME280;5724;42.684;23.252;2023-07-29T06:56:58;94284.97;;;22.61;52.72
11339;BME280;5724;42.684;23.252;2023-07-29T06:59:23;94285.47;;;22.89;52.59
11339;BME280;5724;42.684;23.252;2023-07-29T07:01:50;94283.50;;;23.02;52.64
11339;BME280;5724;42.684;23.252;2023-07-29T07:04:15;94285.84;;;23.03;51.63
11339;BME280;5724;42.684;23.252;2023-07-29T07:06:40;94287.41;;;23.04;51.66
11339;BME280;5724;42.684;23.252;2023-07-29T07:09:06;94283.50;;;23.02;52.17
11339;BME280;5724;42.684;23.252;2023-07-29T07:11:32;94278.91;;;22.79;51.89
11339;BME280;5724;42.684;23.252;2023-07-29T07:13:57;94277.94;;;22.24;53.27
11339;BME280;5724;42.684;23.252;2023-07-29T07:16:22;94276.38;;;22.39;52.97
11339;BME280;5724;42.684;23.252;2023-07-29T07:18:48;94275.66;;;22.97;52.69
11339;BME280;5724;42.684;23.252;2023-07-29T07:21:13;94280.69;;;23.02;51.66
11339;BME280;5724;42.684;23.252;2023-07-29T07:23:39;94274.78;;;23.29;51.36
11339;BME280;5724;42.684;23.252;2023-07-29T07:26:04;94279.19;;;23.55;50.45
11339;BME280;5724;42.684;23.252;2023-07-29T07:28:30;94269.19;;;23.70;49.66
11339;BME280;5724;42.684;23.252;2023-07-29T07:30:55;94272.06;;;23.92;49.23
11339;BME280;5724;42.684;23.252;2023-07-29T07:33:22;94269.19;;;24.09;48.70
11339;BME280;5724;42.684;23.252;2023-07-29T07:35:47;94262.09;;;24.30;48.76
11339;BME280;5724;42.684;23.252;2023-07-29T07:38:12;94264.50;;;24.06;49.30
11339;BME280;5724;42.684;23.252;2023-07-29T07:40:38;94262.81;;;24.08;48.96
11339;BME280;5724;42.684;23.252;2023-07-29T07:43:03;94265.84;;;24.14;48.62
11339;BME280;5724;42.684;23.252;2023-07-29T07:45:29;94266.47;;;24.31;47.89
11339;BME280;5724;42.684;23.252;2023-07-29T07:47:55;94265.81;;;24.52;47.81
11339;BME280;5724;42.684;23.252;2023-07-29T07:50:21;94272.19;;;24.14;47.73
11339;BME280;5724;42.684;23.252;2023-07-29T07:52:46;94268.84;;;24.07;48.52
11339;BME280;5724;42.684;23.252;2023-07-29T07:55:12;94274.53;;;23.90;48.69
11339;BME280;5724;42.684;23.252;2023-07-29T07:57:37;94267.84;;;24.01;48.54
11339;BME280;5724;42.684;23.252;2023-07-29T08:00:03;94269.06;;;24.12;48.68
11339;BME280;5724;42.684;23.252;2023-07-29T08:02:30;94272.06;;;24.43;48.27
11339;BME280;5724;42.684;23.252;2023-07-29T08:04:55;94269.78;;;24.64;47.73
11339;BME280;5724;42.684;23.252;2023-07-29T08:07:21;94268.03;;;24.92;47.16
11339;BME280;5724;42.684;23.252;2023-07-29T08:09:46;94266.09;;;24.89;46.98
11339;BME280;5724;42.684;23.252;2023-07-29T08:12:12;94266.88;;;25.02;46.74
11339;BME280;5724;42.684;23.252;2023-07-29T08:14:37;94271.84;;;25.20;47.09
11339;BME280;5724;42.684;23.252;2023-07-29T08:17:03;94268.31;;;25.06;46.78
11339;BME280;5724;42.684;23.252;2023-07-29T08:19:28;94277.53;;;25.16;46.60
11339;BME280;5724;42.684;23.252;2023-07-29T08:21:54;94274.47;;;25.01;45.87
11339;BME280;5724;42.684;23.252;2023-07-29T08:24:19;94282.75;;;25.27;45.28
11339;BME280;5724;42.684;23.252;2023-07-29T08:26:44;94275.66;;;25.35;44.60
11339;BME280;5724;42.684;23.252;2023-07-29T08:29:11;94276.28;;;24.95;45.38
11339;BME280;5724;42.684;23.252;2023-07-29T08:31:37;94273.13;;;25.06;44.49
11339;BME280;5724;42.684;23.252;2023-07-29T08:34:03;94272.53;;;25.33;44.33
11339;BME280;5724;42.684;23.252;2023-07-29T08:36:28;94268.69;;;25.61;43.77
11339;BME280;5724;42.684;23.252;2023-07-29T08:38:54;94259.81;;;25.63;43.03
11339;BME280;5724;42.684;23.252;2023-07-29T08:41:25;94268.16;;;25.54;43.02
11339;BME280;5724;42.684;23.252;2023-07-29T08:46:16;94254.59;;;25.43;43.55
11339;BME280;5724;42.684;23.252;2023-07-29T08:48:43;94254.16;;;25.76;43.60
11339;BME280;5724;42.684;23.252;2023-07-29T08:51:12;94260.69;;;26.13;41.40
11339;BME280;5724;42.684;23.252;2023-07-29T08:53:38;94255.00;;;26.25;40.70
11339;BME280;5724;42.684;23.252;2023-07-29T08:56:04;94252.22;;;26.35;39.95
11339;BME280;5724;42.684;23.252;2023-07-29T08:58:31;94253.34;;;26.37;39.95
11339;BME280;5724;42.684;23.252;2023-07-29T09:00:56;94248.94;;;26.36;39.67
11339;BME280;5724;42.684;23.252;2023-07-29T09:03:22;94257.94;;;26.22;39.28
11339;BME280;5724;42.684;23.252;2023-07-29T09:05:48;94243.53;;;26.42;38.02
11339;BME280;5724;42.684;23.252;2023-07-29T09:08:14;94246.28;;;26.33;38.36
11339;BME280;5724;42.684;23.252;2023-07-29T09:10:40;94249.19;;;26.78;38.00
11339;BME280;5724;42.684;23.252;2023-07-29T09:13:06;94241.28;;;27.04;38.05
11339;BME280;5724;42.684;23.252;2023-07-29T09:15:36;94239.72;;;27.22;37.44
11339;BME280;5724;42.684;23.252;2023-07-29T09:18:15;94239.50;;;27.53;36.60
11339;BME280;5724;42.684;23.252;2023-07-29T09:20:41;94242.59;;;27.64;36.26
11339;BME280;5724;42.684;23.252;2023-07-29T09:23:08;94227.19;;;27.50;36.81
11339;BME280;5724;42.684;23.252;2023-07-29T09:25:38;94234.47;;;27.84;36.79
11339;BME280;5724;42.684;23.252;2023-07-29T09:28:11;94243.81;;;27.90;36.66
11339;BME280;5724;42.684;23.252;2023-07-29T09:30:38;94236.53;;;28.08;36.06
11339;BME280;5724;42.684;23.252;2023-07-29T09:33:04;94236.19;;;28.15;36.21
11339;BME280;5724;42.684;23.252;2023-07-29T09:35:32;94231.38;;;27.73;36.78
11339;BME280;5724;42.684;23.252;2023-07-29T09:37:57;94226.22;;;27.81;36.11
11339;BME280;5724;42.684;23.252;2023-07-29T09:40:23;94221.13;;;27.52;34.96
11339;BME280;5724;42.684;23.252;2023-07-29T09:42:53;94211.28;;;27.47;35.00
11339;BME280;5724;42.684;23.252;2023-07-29T09:45:23;94219.78;;;27.89;35.03
11339;BME280;5724;42.684;23.252;2023-07-29T09:47:49;94228.50;;;27.91;34.71
11339;BME280;5724;42.684;23.252;2023-07-29T09:50:15;94222.97;;;28.06;34.74
11339;BME280;5724;42.684;23.252;2023-07-29T09:52:41;94215.94;;;28.11;35.27
11339;BME280;5724;42.684;23.252;2023-07-29T09:55:07;94209.31;;;28.23;34.32
11339;BME280;5724;42.684;23.252;2023-07-29T09:57:33;94206.56;;;28.14;34.19
11339;BME280;5724;42.684;23.252;2023-07-29T09:59:59;94198.06;;;28.32;34.54
11339;BME280;5724;42.684;23.252;2023-07-29T10:02:25;94205.03;;;28.37;34.23
11339;BME280;5724;42.684;23.252;2023-07-29T10:04:54;94207.34;;;28.47;33.29
11339;BME280;5724;42.684;23.252;2023-07-29T10:07:20;94208.22;;;28.54;33.33
11339;BME280;5724;42.684;23.252;2023-07-29T10:09:46;94195.56;;;28.58;32.48
11339;BME280;5724;42.684;23.252;2023-07-29T10:12:13;94206.22;;;28.21;32.12
11339;BME280;5724;42.684;23.252;2023-07-29T10:14:39;94196.03;;;28.33;32.48
11339;BME280;5724;42.684;23.252;2023-07-29T10:17:05;94199.47;;;27.94;32.10
11339;BME280;5724;42.684;23.252;2023-07-29T10:19:31;94193.88;;;27.85;32.35
11339;BME280;5724;42.684;23.252;2023-07-29T10:21:59;94179.13;;;28.09;32.24
11339;BME280;5724;42.684;23.252;2023-07-29T10:24:32;94178.09;;;28.30;32.75
11339;BME280;5724;42.684;23.252;2023-07-29T10:26:59;94171.69;;;28.54;32.62
11339;BME280;5724;42.684;23.252;2023-07-29T10:29:30;94179.13;;;28.57;31.94
11339;BME280;5724;42.684;23.252;2023-07-29T10:31:57;94178.06;;;28.54;32.21
11339;BME280;5724;42.684;23.252;2023-07-29T10:34:26;94169.56;;;28.63;31.85
11339;BME280;5724;42.684;23.252;2023-07-29T10:36:53;94162.75;;;28.55;31.85
11339;BME280;5724;42.684;23.252;2023-07-29T10:39:19;94164.38;;;28.71;32.25
11339;BME280;5724;42.684;23.252;2023-07-29T10:42:01;94162.22;;;29.04;32.44
11339;BME280;5724;42.684;23.252;2023-07-29T10:44:46;94159.63;;;29.45;32.50
11339;BME280;5724;42.684;23.252;2023-07-29T10:47:13;94153.94;;;29.54;31.22
11339;BME280;5724;42.684;23.252;2023-07-29T10:49:49;94155.75;;;29.57;31.47
11339;BME280;5724;42.684;23.252;2023-07-29T10:52:17;94154.16;;;29.86;30.76
11339;BME280;5724;42.684;23.252;2023-07-29T10:54:52;94156.59;;;29.93;30.57
11339;BME280;5724;42.684;23.252;2023-07-29T10:57:38;94144.03;;;29.94;29.97
11339;BME280;5724;42.684;23.252;2023-07-29T11:00:06;94136.66;;;30.11;30.03
11339;BME280;5724;42.684;23.252;2023-07-29T11:02:35;94138.34;;;30.24;30.44
11339;BME280;5724;42.684;23.252;2023-07-29T11:05:27;94138.91;;;30.48;29.16
11339;BME280;5724;42.684;23.252;2023-07-29T11:08:36;94144.69;;;30.04;29.00
11339;BME280;5724;42.684;23.252;2023-07-29T11:11:07;94135.00;;;29.55;29.89
11339;BME280;5724;42.684;23.252;2023-07-29T11:13:37;94133.72;;;30.06;29.53
11339;BME280;5724;42.684;23.252;2023-07-29T11:16:03;94139.66;;;30.28;29.85
11339;BME280;5724;42.684;23.252;2023-07-29T11:18:31;94134.41;;;30.36;29.49
11339;BME280;5724;42.684;23.252;2023-07-29T11:20:58;94132.00;;;30.49;28.47
11339;BME280;5724;42.684;23.252;2023-07-29T11:23:35;94130.88;;;30.61;28.78
11339;BME280;5724;42.684;23.252;2023-07-29T11:26:01;94133.06;;;30.52;29.99
11339;BME280;5724;42.684;23.252;2023-07-29T11:28:27;94134.63;;;30.73;28.80
11339;BME280;5724;42.684;23.252;2023-07-29T11:30:54;94118.06;;;30.60;28.96
11339;BME280;5724;42.684;23.252;2023-07-29T11:33:22;94130.31;;;30.77;28.76
11339;BME280;5724;42.684;23.252;2023-07-29T11:35:49;94125.28;;;30.87;28.21
11339;BME280;5724;42.684;23.252;2023-07-29T11:38:15;94132.31;;;30.97;27.93
11339;BME280;5724;42.684;23.252;2023-07-29T11:40:42;94126.63;;;30.92;28.38
11339;BME280;5724;42.684;23.252;2023-07-29T11:43:07;94123.63;;;30.75;27.87
11339;BME280;5724;42.684;23.252;2023-07-29T11:45:33;94109.50;;;30.55;27.90
11339;BME280;5724;42.684;23.252;2023-07-29T11:47:58;94120.69;;;30.08;27.27
11339;BME280;5724;42.684;23.252;2023-07-29T11:50:26;94102.56;;;29.95;27.18
11339;BME280;5724;42.684;23.252;2023-07-29T11:52:52;94118.56;;;30.03;26.72
11339;BME280;5724;42.684;23.252;2023-07-29T11:55:17;94112.19;;;29.88;25.96
11339;BME280;5724;42.684;23.252;2023-07-29T11:57:45;94107.63;;;29.55;26.80
11339;BME280;5724;42.684;23.252;2023-07-29T12:00:14;94109.72;;;29.75;27.17
11339;BME280;5724;42.684;23.252;2023-07-29T12:02:42;94088.75;;;29.61;27.40
11339;BME280;5724;42.684;23.252;2023-07-29T12:05:10;94099.66;;;29.89;27.02
11339;BME280;5724;42.684;23.252;2023-07-29T12:07:38;94103.31;;;29.75;26.84
11339;BME280;5724;42.684;23.252;2023-07-29T12:10:04;94098.66;;;30.07;27.67
11339;BME280;5724;42.684;23.252;2023-07-29T12:12:30;94097.25;;;30.17;27.13
11339;BME280;5724;42.684;23.252;2023-07-29T12:14:56;94090.25;;;29.92;26.58
11339;BME280;5724;42.684;23.252;2023-07-29T12:17:21;94098.31;;;30.40;26.29
11339;BME280;5724;42.684;23.252;2023-07-29T12:19:47;94093.78;;;30.68;25.80
11339;BME280;5724;42.684;23.252;2023-07-29T12:22:19;94091.81;;;30.74;26.18
11339;BME280;5724;42.684;23.252;2023-07-29T12:24:45;94096.81;;;31.11;26.03
11339;BME280;5724;42.684;23.252;2023-07-29T12:27:12;94083.13;;;30.78;26.09
11339;BME280;5724;42.684;23.252;2023-07-29T12:29:42;94087.88;;;30.46;26.25
11339;BME280;5724;42.684;23.252;2023-07-29T12:32:08;94085.75;;;30.82;26.04
11339;BME280;5724;42.684;23.252;2023-07-29T12:34:35;94082.97;;;31.13;26.40
11339;BME280;5724;42.684;23.252;2023-07-29T12:37:03;94079.16;;;31.16;25.50
11339;BME280;5724;42.684;23.252;2023-07-29T12:39:30;94085.41;;;31.26;26.60
11339;BME280;5724;42.684;23.252;2023-07-29T12:41:57;94086.47;;;31.02;25.91
11339;BME280;5724;42.684;23.252;2023-07-29T12:44:24;94091.13;;;30.80;26.41
11339;BME280;5724;42.684;23.252;2023-07-29T12:46:50;94087.34;;;30.42;26.66
11339;BME280;5724;42.684;23.252;2023-07-29T12:49:16;94082.03;;;30.29;26.50
11339;BME280;5724;42.684;23.252;2023-07-29T12:51:42;94090.78;;;30.72;26.91
11339;BME280;5724;42.684;23.252;2023-07-29T12:54:08;94090.47;;;30.90;26.42
11339;BME280;5724;42.684;23.252;2023-07-29T12:56:33;94086.19;;;30.74;26.02
11339;BME280;5724;42.684;23.252;2023-07-29T12:59:00;94091.28;;;30.70;26.17
11339;BME280;5724;42.684;23.252;2023-07-29T13:01:26;94088.56;;;30.82;25.20
11339;BME280;5724;42.684;23.252;2023-07-29T13:03:52;94078.69;;;30.92;25.67